createdAt,value
2022-11-20T00:01:35.367Z,11.17
2022-11-20T00:03:38.513Z,11.70
2022-11-20T00:05:41.172Z,11.00
2022-11-20T00:07:43.708Z,11.57
2022-11-20T00:09:46.241Z,11.63
2022-11-20T00:11:48.830Z,10.87
2022-11-20T00:13:56.121Z,9.60
2022-11-20T00:16:01.114Z,11.07
2022-11-20T00:18:03.663Z,11.82
2022-11-20T00:20:06.914Z,9.10
2022-11-20T00:22:09.498Z,9.27
2022-11-20T00:24:12.426Z,8.43
2022-11-20T00:26:18.576Z,8.67
2022-11-20T00:28:21.201Z,9.55
2022-11-20T00:30:23.722Z,8.70
2022-11-20T00:32:26.552Z,9.40
2022-11-20T00:34:29.089Z,9.38
2022-11-20T00:36:35.083Z,8.23
2022-11-20T00:38:38.021Z,8.98
2022-11-20T00:40:40.869Z,9.70
2022-11-20T00:42:43.578Z,8.80
2022-11-20T00:44:46.142Z,9.93
2022-11-20T00:46:48.699Z,10.73
2022-11-20T00:48:51.397Z,8.73
2022-11-20T00:50:55.079Z,9.80
2022-11-20T00:52:57.630Z,8.97
2022-11-20T00:55:00.230Z,9.23
2022-11-20T00:57:02.886Z,9.53
2022-11-20T00:59:05.446Z,10.77
2022-11-20T01:01:26.351Z,10.95
2022-11-20T01:03:35.498Z,10.70
2022-11-20T01:05:38.069Z,10.50
2022-11-20T01:07:58.652Z,10.10
2022-11-20T01:10:01.204Z,11.00
2022-11-20T01:12:04.705Z,9.80
2022-11-20T01:14:11.935Z,8.73
2022-11-20T01:16:20.896Z,10.67
2022-11-20T01:18:23.478Z,10.67
2022-11-20T01:20:26.013Z,11.70
2022-11-20T01:22:28.611Z,10.23
2022-11-20T01:24:31.209Z,10.90
2022-11-20T01:26:36.428Z,10.10
2022-11-20T01:28:40.537Z,11.07
2022-11-20T01:30:43.076Z,11.10
2022-11-20T01:32:45.603Z,11.40
2022-11-20T01:34:57.117Z,10.50
2022-11-20T01:36:59.665Z,10.83
2022-11-20T01:39:06.462Z,12.10
2022-11-20T01:41:10.141Z,12.03
2022-11-20T01:43:22.822Z,13.07
2022-11-20T01:46:15.632Z,11.40
2022-11-20T01:48:34.394Z,11.50
2022-11-20T01:50:37.010Z,10.83
2022-11-20T01:52:47.929Z,12.50
2022-11-20T01:54:57.425Z,10.90
2022-11-20T01:57:01.894Z,11.37
2022-11-20T01:59:08.520Z,10.80
2022-11-20T02:01:37.481Z,13.60
2022-11-20T02:03:40.388Z,21.00
2022-11-20T02:06:16.351Z,21.53
2022-11-20T02:08:20.697Z,22.70
2022-11-20T02:10:23.279Z,19.03
2022-11-20T02:12:44.485Z,17.90
2022-11-20T02:14:47.106Z,17.47
2022-11-20T02:16:51.159Z,16.40
2022-11-20T02:18:56.603Z,15.90
2022-11-20T02:21:29.525Z,14.60
2022-11-20T02:24:03.795Z,12.73
2022-11-20T02:26:12.044Z,12.23
2022-11-20T02:28:14.766Z,12.73
2022-11-20T02:30:17.951Z,10.73
2022-11-20T02:32:22.429Z,10.60
2022-11-20T02:34:24.982Z,10.85
2022-11-20T02:36:32.055Z,11.93
2022-11-20T02:38:34.614Z,10.93
2022-11-20T02:40:37.263Z,11.23
2022-11-20T02:42:39.875Z,11.30
2022-11-20T02:44:42.431Z,11.50
2022-11-20T02:46:44.953Z,10.50
2022-11-20T02:48:47.570Z,11.37
2022-11-20T02:50:50.144Z,12.10
2022-11-20T02:52:52.757Z,12.77
2022-11-20T02:55:09.967Z,13.13
2022-11-20T02:57:12.620Z,11.90
2022-11-20T02:59:15.127Z,13.67
2022-11-20T03:01:17.833Z,13.10
2022-11-20T03:03:20.627Z,14.37
2022-11-20T03:05:23.232Z,11.70
2022-11-20T03:07:26.486Z,13.45
2022-11-20T03:09:29.107Z,13.23
2022-11-20T03:11:31.675Z,13.17
2022-11-20T03:13:34.807Z,11.57
2022-11-20T03:15:38.150Z,12.30
2022-11-20T03:17:40.749Z,10.83
2022-11-20T03:19:45.388Z,10.50
2022-11-20T03:21:48.304Z,12.53
2022-11-20T03:23:50.863Z,10.50
2022-11-20T03:25:53.587Z,12.87
2022-11-20T03:27:56.242Z,12.37
2022-11-20T03:29:58.769Z,13.80
2022-11-20T03:32:01.308Z,12.60
2022-11-20T03:34:04.986Z,12.17
2022-11-20T03:36:11.665Z,9.57
2022-11-20T03:38:14.214Z,12.07
2022-11-20T03:40:22.901Z,9.90
2022-11-20T03:42:45.028Z,9.60
2022-11-20T03:44:47.604Z,12.00
2022-11-20T03:46:50.152Z,10.40
2022-11-20T03:48:53.169Z,9.70
2022-11-20T03:51:15.666Z,9.67
2022-11-20T03:53:20.394Z,10.83
2022-11-20T03:55:22.961Z,10.13
2022-11-20T03:57:25.529Z,11.57
2022-11-20T03:59:28.134Z,9.77
2022-11-20T04:01:34.118Z,11.40
2022-11-20T04:03:38.568Z,11.10
2022-11-20T04:05:41.111Z,10.17
2022-11-20T04:07:43.714Z,9.87
2022-11-20T04:09:46.349Z,10.37
2022-11-20T04:11:48.895Z,11.57
2022-11-20T04:13:54.734Z,9.43
2022-11-20T04:15:59.180Z,9.90
2022-11-20T04:18:01.698Z,8.90
2022-11-20T04:20:05.220Z,10.10
2022-11-20T04:22:07.862Z,8.83
2022-11-20T04:24:11.470Z,9.07
2022-11-20T04:26:14.482Z,9.03
2022-11-20T04:28:17.149Z,11.37
2022-11-20T04:30:19.671Z,8.00
2022-11-20T04:32:22.204Z,7.93
2022-11-20T04:34:31.694Z,7.87
2022-11-20T04:36:34.972Z,8.00
2022-11-20T04:38:37.864Z,8.60
2022-11-20T04:40:40.423Z,8.10
2022-11-20T04:42:42.972Z,9.00
2022-11-20T04:44:45.507Z,9.23
2022-11-20T04:46:48.062Z,7.57
2022-11-20T04:48:50.559Z,9.23
2022-11-20T04:50:53.478Z,7.73
2022-11-20T04:52:56.036Z,9.60
2022-11-20T04:54:58.635Z,8.53
2022-11-20T04:57:01.274Z,8.47
2022-11-20T04:59:04.198Z,9.50
2022-11-20T05:01:16.939Z,8.67
2022-11-20T05:03:19.569Z,8.97
2022-11-20T05:05:22.223Z,10.80
2022-11-20T05:07:24.864Z,10.47
2022-11-20T05:09:27.468Z,10.23
2022-11-20T05:11:30.094Z,10.83
2022-11-20T05:13:32.844Z,11.27
2022-11-20T05:15:35.607Z,10.97
2022-11-20T05:17:52.586Z,10.20
2022-11-20T05:19:55.171Z,8.97
2022-11-20T05:21:57.969Z,10.03
2022-11-20T05:24:00.603Z,11.40
2022-11-20T05:26:03.777Z,9.50
2022-11-20T05:28:06.357Z,11.50
2022-11-20T05:30:10.056Z,10.40
2022-11-20T05:32:12.925Z,10.80
2022-11-20T05:34:15.634Z,10.33
2022-11-20T05:36:19.008Z,10.63
2022-11-20T05:38:21.588Z,10.13
2022-11-20T05:40:24.141Z,9.23
2022-11-20T05:42:32.417Z,11.02
2022-11-20T05:44:34.992Z,10.60
2022-11-20T05:46:37.824Z,9.70
2022-11-20T05:48:42.129Z,9.90
2022-11-20T05:50:44.808Z,9.70
2022-11-20T05:52:47.312Z,10.38
2022-11-20T05:54:49.974Z,8.73
2022-11-20T05:56:52.553Z,10.43
2022-11-20T05:58:55.172Z,11.30
2022-11-20T06:01:17.416Z,10.47
2022-11-20T06:03:20.196Z,10.05
2022-11-20T06:05:22.710Z,9.10
2022-11-20T06:07:25.383Z,8.37
2022-11-20T06:10:43.575Z,10.23
2022-11-20T06:12:46.125Z,10.93
2022-11-20T06:14:48.667Z,10.30
2022-11-20T06:16:51.322Z,9.90
2022-11-20T06:19:05.935Z,10.48
2022-11-20T06:21:13.528Z,11.95
2022-11-20T06:23:16.159Z,11.87
2022-11-20T06:25:18.746Z,10.30
2022-11-20T06:27:21.334Z,10.63
2022-11-20T06:29:24.219Z,10.87
2022-11-20T06:31:27.725Z,11.10
2022-11-20T06:33:31.080Z,11.00
2022-11-20T06:35:33.662Z,11.23
2022-11-20T06:37:36.215Z,11.40
2022-11-20T06:39:38.947Z,11.13
2022-11-20T06:41:41.558Z,10.97
2022-11-20T06:43:44.490Z,11.60
2022-11-20T06:45:47.017Z,12.20
2022-11-20T06:47:49.624Z,12.07
2022-11-20T06:49:52.197Z,12.50
2022-11-20T06:51:56.697Z,11.97
2022-11-20T06:54:01.974Z,12.03
2022-11-20T06:56:05.166Z,12.17
2022-11-20T06:58:07.921Z,12.47
2022-11-20T07:00:12.200Z,13.53
2022-11-20T07:02:14.781Z,12.00
2022-11-20T07:04:17.365Z,11.37
2022-11-20T07:06:19.864Z,13.37
2022-11-20T07:08:22.424Z,11.70
2022-11-20T07:10:26.101Z,12.43
2022-11-20T07:12:28.746Z,13.35
2022-11-20T07:14:31.422Z,11.43
2022-11-20T07:16:33.941Z,10.57
2022-11-20T07:18:37.202Z,12.80
2022-11-20T07:20:39.759Z,11.57
2022-11-20T07:22:42.876Z,12.70
2022-11-20T07:24:46.260Z,11.30
2022-11-20T07:26:51.486Z,11.90
2022-11-20T07:28:54.015Z,12.00
2022-11-20T07:30:56.532Z,10.87
2022-11-20T07:32:59.241Z,11.60
2022-11-20T07:35:01.815Z,11.27
2022-11-20T07:37:10.099Z,11.40
2022-11-20T07:39:13.001Z,10.60
2022-11-20T07:41:16.312Z,11.50
2022-11-20T07:43:18.850Z,10.10
2022-11-20T07:45:23.639Z,11.17
2022-11-20T07:47:26.415Z,11.70
2022-11-20T07:49:29.054Z,10.50
2022-11-20T07:51:47.894Z,11.33
2022-11-20T07:53:53.814Z,10.27
2022-11-20T07:55:56.459Z,10.97
2022-11-20T07:57:59.585Z,12.10
2022-11-20T08:00:02.915Z,10.53
2022-11-20T08:02:14.637Z,9.90
2022-11-20T08:04:17.267Z,10.50
2022-11-20T08:06:20.992Z,10.43
2022-11-20T08:08:23.956Z,9.23
2022-11-20T08:10:26.525Z,11.63
2022-11-20T08:12:48.024Z,12.50
2022-11-20T08:14:50.552Z,13.30
2022-11-20T08:16:53.126Z,11.70
2022-11-20T08:18:56.360Z,10.10
2022-11-20T08:21:02.258Z,11.80
2022-11-20T08:23:08.865Z,9.97
2022-11-20T08:25:11.417Z,12.40
2022-11-20T08:27:13.965Z,12.17
2022-11-20T08:29:16.493Z,11.73
2022-11-20T08:31:19.078Z,11.70
2022-11-20T08:33:21.587Z,13.10
2022-11-20T08:35:24.562Z,11.37
2022-11-20T08:37:27.163Z,14.70
2022-11-20T08:39:29.720Z,11.93
2022-11-20T08:41:34.212Z,11.73
2022-11-20T08:43:36.975Z,13.40
2022-11-20T08:45:39.598Z,14.17
2022-11-20T08:47:42.983Z,12.23
2022-11-20T08:49:45.917Z,13.30
2022-11-20T08:51:52.734Z,11.93
2022-11-20T08:54:02.734Z,12.60
2022-11-20T08:56:06.043Z,12.77
2022-11-20T08:58:08.567Z,14.80
2022-11-20T09:00:12.606Z,12.33
2022-11-20T09:02:15.440Z,10.43
2022-11-20T09:04:18.425Z,13.10
2022-11-20T09:06:21.000Z,11.80
2022-11-20T09:08:23.528Z,10.97
2022-11-20T09:10:27.110Z,13.07
2022-11-20T09:12:30.053Z,14.07
2022-11-20T09:14:32.883Z,12.63
2022-11-20T09:16:35.455Z,13.37
2022-11-20T09:18:38.492Z,11.70
2022-11-20T09:20:41.017Z,12.20
2022-11-20T09:22:43.668Z,12.60
2022-11-20T09:24:46.354Z,14.50
2022-11-20T09:26:48.943Z,14.93
2022-11-20T09:28:55.385Z,13.07
2022-11-20T09:31:01.059Z,12.43
2022-11-20T09:33:06.802Z,14.03
2022-11-20T09:35:10.356Z,12.50
2022-11-20T09:37:20.087Z,14.30
2022-11-20T09:39:23.035Z,11.40
2022-11-20T09:42:00.369Z,11.10
2022-11-20T09:44:39.645Z,10.70
2022-11-20T09:47:25.994Z,10.80
2022-11-20T09:50:14.200Z,11.30
2022-11-20T09:52:55.181Z,10.65
2022-11-20T09:54:58.666Z,9.37
2022-11-20T09:57:06.767Z,8.90
2022-11-20T09:59:40.730Z,11.40
2022-11-20T10:01:44.242Z,10.30
2022-11-20T10:04:07.456Z,9.00
2022-11-20T10:06:18.295Z,7.97
2022-11-20T10:08:40.286Z,9.20
2022-11-20T10:11:07.896Z,12.60
2022-11-20T10:13:35.281Z,9.93
2022-11-20T10:16:04.449Z,11.77
2022-11-20T10:18:43.943Z,10.27
2022-11-20T10:21:20.923Z,14.17
2022-11-20T10:24:20.719Z,11.90
2022-11-20T10:26:44.297Z,12.57
2022-11-20T10:29:09.117Z,12.10
2022-11-20T10:31:25.009Z,16.77
2022-11-20T10:33:50.066Z,15.70
2022-11-20T10:36:10.225Z,14.53
2022-11-20T10:38:23.206Z,15.77
2022-11-20T10:40:47.664Z,18.47
2022-11-20T10:43:27.525Z,17.60
2022-11-20T10:45:52.241Z,15.07
2022-11-20T10:48:17.642Z,17.23
2022-11-20T10:50:23.274Z,15.70
2022-11-20T10:53:03.220Z,16.07
2022-11-20T10:55:13.333Z,13.67
2022-11-20T10:57:41.731Z,15.60
2022-11-20T10:59:55.289Z,15.97
2022-11-20T11:01:58.121Z,14.93
2022-11-20T11:04:02.622Z,15.00
2022-11-20T11:06:11.655Z,12.80
2022-11-20T11:08:20.421Z,15.30
2022-11-20T11:10:32.095Z,13.33
2022-11-20T11:12:34.656Z,12.00
2022-11-20T11:14:52.576Z,12.33
2022-11-20T11:16:58.492Z,11.60
2022-11-20T11:19:14.686Z,12.67
2022-11-20T11:21:25.966Z,15.70
2022-11-20T11:23:39.509Z,17.47
2022-11-20T11:25:42.217Z,16.37
2022-11-20T11:27:49.152Z,17.13
2022-11-20T11:30:03.410Z,19.00
2022-11-20T11:32:14.554Z,16.07
2022-11-20T11:34:18.814Z,14.83
2022-11-20T11:36:26.065Z,17.80
2022-11-20T11:38:44.112Z,16.70
2022-11-20T11:40:48.277Z,16.50
2022-11-20T11:43:05.791Z,18.83
2022-11-20T11:45:23.310Z,23.67
2022-11-20T11:47:31.401Z,23.97
2022-11-20T11:49:33.983Z,38.90
2022-11-20T11:51:54.418Z,26.85
2022-11-20T11:53:59.884Z,36.27
2022-11-20T11:56:13.661Z,40.97
2022-11-20T11:59:07.067Z,36.72
2022-11-20T12:02:01.234Z,31.20
2022-11-20T12:04:38.056Z,40.50
2022-11-20T12:06:48.077Z,28.17
2022-11-20T12:09:09.039Z,17.27
2022-11-20T12:11:46.920Z,13.70
2022-11-20T12:14:24.938Z,13.60
2022-11-20T12:16:27.637Z,12.57
2022-11-20T12:18:31.108Z,11.85
2022-11-20T12:20:45.323Z,11.13
2022-11-20T12:23:22.807Z,10.57
2022-11-20T12:25:34.532Z,9.70
2022-11-20T12:27:57.003Z,9.37
2022-11-20T12:30:10.742Z,9.13
2022-11-20T12:32:15.708Z,8.90
2022-11-20T12:34:45.668Z,8.68
2022-11-20T12:37:47.622Z,9.55
2022-11-20T12:39:51.761Z,9.60
2022-11-20T12:42:33.451Z,9.13
2022-11-20T12:45:26.625Z,8.20
2022-11-20T12:47:59.656Z,9.33
2022-11-20T12:51:00.124Z,9.03
2022-11-20T12:53:30.137Z,7.60
2022-11-20T12:56:00.527Z,8.33
2022-11-20T12:58:22.160Z,9.27
2022-11-20T13:00:26.097Z,7.80
2022-11-20T13:02:46.015Z,10.57
2022-11-20T13:05:30.527Z,11.40
2022-11-20T13:07:36.398Z,10.40
2022-11-20T13:09:49.954Z,9.93
2022-11-20T13:12:24.012Z,10.70
2022-11-20T13:14:53.777Z,11.33
2022-11-20T13:17:07.250Z,10.80
2022-11-20T13:19:14.935Z,11.73
2022-11-20T13:21:24.546Z,10.87
2022-11-20T13:23:28.934Z,11.17
2022-11-20T13:25:37.760Z,11.30
2022-11-20T13:27:49.612Z,10.43
2022-11-20T13:30:16.314Z,9.40
2022-11-20T13:32:22.233Z,9.90
2022-11-20T13:34:27.289Z,9.10
2022-11-20T13:36:31.436Z,8.20
2022-11-20T13:38:50.492Z,8.00
2022-11-20T13:41:24.325Z,9.67
2022-11-20T13:43:39.958Z,7.93
2022-11-20T13:45:42.594Z,8.93
2022-11-20T13:47:50.911Z,8.90
2022-11-20T13:49:56.157Z,7.60
2022-11-20T13:52:35.617Z,7.67
2022-11-20T13:55:23.008Z,7.63
2022-11-20T13:58:34.306Z,8.15
2022-11-20T14:00:52.878Z,7.73
2022-11-20T14:03:07.906Z,7.20
2022-11-20T14:05:23.009Z,7.50
2022-11-20T14:07:41.022Z,7.70
2022-11-20T14:09:57.862Z,7.50
2022-11-20T14:12:01.103Z,7.50
2022-11-20T14:14:17.333Z,7.03
2022-11-20T14:16:49.783Z,8.40
2022-11-20T14:18:52.456Z,8.48
2022-11-20T14:20:55.026Z,8.90
2022-11-20T14:22:57.628Z,11.10
2022-11-20T14:25:15.327Z,9.77
2022-11-20T14:27:22.507Z,11.70
2022-11-20T14:29:31.159Z,13.52
2022-11-20T14:31:33.793Z,15.57
2022-11-20T14:33:37.288Z,14.30
2022-11-20T14:35:49.193Z,17.90
2022-11-20T14:37:52.469Z,16.07
2022-11-20T14:39:57.389Z,14.47
2022-11-20T14:42:00.338Z,14.17
2022-11-20T14:44:03.765Z,13.70
2022-11-20T14:46:11.567Z,11.57
2022-11-20T14:48:15.336Z,9.80
2022-11-20T14:50:24.311Z,8.43
2022-11-20T14:52:28.930Z,10.10
2022-11-20T14:54:31.760Z,9.20
2022-11-20T14:56:34.316Z,9.60
2022-11-20T14:58:37.055Z,8.77
2022-11-20T15:00:39.603Z,8.33
2022-11-20T15:02:53.090Z,7.10
2022-11-20T15:05:02.646Z,8.40
2022-11-20T15:07:05.358Z,7.30
2022-11-20T15:09:15.748Z,7.30
2022-11-20T15:11:28.745Z,8.10
2022-11-20T15:13:34.628Z,8.30
2022-11-20T15:15:51.414Z,7.33
2022-11-20T15:17:54.557Z,8.70
2022-11-20T15:19:57.412Z,7.00
2022-11-20T15:22:17.309Z,8.00
2022-11-20T15:24:20.927Z,6.37
2022-11-20T15:26:27.570Z,6.57
2022-11-20T15:28:35.628Z,6.57
2022-11-20T15:30:45.183Z,7.17
2022-11-20T15:32:48.553Z,7.20
2022-11-20T15:34:51.123Z,7.40
2022-11-20T15:36:54.216Z,9.47
2022-11-20T15:38:56.725Z,10.20
2022-11-20T15:40:59.468Z,12.60
2022-11-20T15:43:09.689Z,11.33
2022-11-20T15:45:15.481Z,10.93
2022-11-20T15:47:18.487Z,11.00
2022-11-20T15:49:22.770Z,12.63
2022-11-20T15:51:34.885Z,13.83
2022-11-20T15:53:42.479Z,14.70
2022-11-20T15:55:45.105Z,13.30
2022-11-20T15:57:47.663Z,15.25
2022-11-20T15:59:50.389Z,13.13
2022-11-20T16:01:53.084Z,12.57
2022-11-20T16:03:55.705Z,10.37
2022-11-20T16:05:58.343Z,10.27
2022-11-20T16:08:01.012Z,9.43
2022-11-20T16:10:04.295Z,8.97
2022-11-20T16:12:09.857Z,9.37
2022-11-20T16:14:31.341Z,8.67
2022-11-20T16:16:37.397Z,7.87
2022-11-20T16:18:40.522Z,7.93
2022-11-20T16:20:43.272Z,8.13
2022-11-20T16:22:45.873Z,7.30
2022-11-20T16:24:48.400Z,7.23
2022-11-20T16:26:51.042Z,8.60
2022-11-20T16:28:53.940Z,7.20
2022-11-20T16:30:56.769Z,6.83
2022-11-20T16:33:00.454Z,7.63
2022-11-20T16:35:04.307Z,5.73
2022-11-20T16:37:06.913Z,6.97
2022-11-20T16:39:09.493Z,6.80
2022-11-20T16:41:15.468Z,5.90
2022-11-20T16:43:18.082Z,5.50
2022-11-20T16:45:25.486Z,7.37
2022-11-20T16:47:56.902Z,5.90
2022-11-20T16:49:59.453Z,6.23
2022-11-20T16:52:02.003Z,6.80
2022-11-20T16:54:07.107Z,6.00
2022-11-20T16:56:11.208Z,6.73
2022-11-20T16:58:15.100Z,6.00
2022-11-20T17:00:17.746Z,6.40
2022-11-20T17:02:40.409Z,5.50
2022-11-20T17:04:42.966Z,5.27
2022-11-20T17:06:45.680Z,6.07
2022-11-20T17:08:49.394Z,5.00
2022-11-20T17:10:51.932Z,5.13
2022-11-20T17:12:54.503Z,4.80
2022-11-20T17:14:57.300Z,4.90
2022-11-20T17:16:59.944Z,5.40
2022-11-20T17:19:03.930Z,5.30
2022-11-20T17:21:07.177Z,7.80
2022-11-20T17:23:09.747Z,5.97
2022-11-20T17:25:12.375Z,7.40
2022-11-20T17:27:15.006Z,6.50
2022-11-20T17:29:21.667Z,5.93
2022-11-20T17:31:24.465Z,6.20
2022-11-20T17:33:27.296Z,6.10
2022-11-20T17:35:29.855Z,5.07
2022-11-20T17:37:32.490Z,5.80
2022-11-20T17:39:36.382Z,5.40
2022-11-20T17:41:38.996Z,5.37
2022-11-20T17:43:42.894Z,5.90
2022-11-20T17:45:45.837Z,6.20
2022-11-20T17:47:48.418Z,7.30
2022-11-20T17:49:51.309Z,5.80
2022-11-20T17:51:53.905Z,6.50
2022-11-20T17:53:59.893Z,5.90
2022-11-20T17:56:21.520Z,5.90
2022-11-20T17:58:44.754Z,5.20
2022-11-20T18:00:47.339Z,6.30
2022-11-20T18:02:50.239Z,6.50
2022-11-20T18:04:52.818Z,6.80
2022-11-20T18:06:55.352Z,6.07
2022-11-20T18:09:04.144Z,6.23
2022-11-20T18:11:22.300Z,6.60
2022-11-20T18:13:47.717Z,4.70
2022-11-20T18:15:50.579Z,5.40
2022-11-20T18:17:53.228Z,6.50
2022-11-20T18:20:21.615Z,7.18
2022-11-20T18:22:20.111Z,7.40
2022-11-20T18:24:22.950Z,5.13
2022-11-20T18:26:26.692Z,6.50
2022-11-20T18:28:29.386Z,5.80
2022-11-20T18:30:31.894Z,6.50
2022-11-20T18:32:35.202Z,6.33
2022-11-20T18:34:37.936Z,6.50
2022-11-20T18:36:46.145Z,7.60
2022-11-20T18:38:51.309Z,6.17
2022-11-20T18:40:53.811Z,6.15
2022-11-20T18:43:14.808Z,5.83
2022-11-20T18:45:17.449Z,5.37
2022-11-20T18:47:24.092Z,6.93
2022-11-20T18:49:27.416Z,6.70
2022-11-20T18:51:29.911Z,7.40
2022-11-20T18:53:36.060Z,7.33
2022-11-20T18:55:40.052Z,7.10
2022-11-20T18:57:42.676Z,8.52
2022-11-20T18:59:46.049Z,7.30
2022-11-20T19:01:49.684Z,8.03
2022-11-20T19:03:52.384Z,7.10
2022-11-20T19:05:54.967Z,9.80
2022-11-20T19:07:57.467Z,9.13
2022-11-20T19:10:03.675Z,8.73
2022-11-20T19:12:10.307Z,8.93
2022-11-20T19:14:12.967Z,9.87
2022-11-20T19:16:19.203Z,9.10
2022-11-20T19:18:21.752Z,9.47
2022-11-20T19:20:25.981Z,10.43
2022-11-20T19:22:28.619Z,9.77
2022-11-20T19:24:31.753Z,10.67
2022-11-20T19:26:38.005Z,12.10
2022-11-20T19:28:40.725Z,10.07
2022-11-20T19:30:43.351Z,12.20
2022-11-20T19:32:45.978Z,10.90
2022-11-20T19:34:48.493Z,10.80
2022-11-20T19:36:51.190Z,9.93
2022-11-20T19:38:54.438Z,10.63
2022-11-20T19:40:57.078Z,9.17
2022-11-20T19:42:59.660Z,9.00
2022-11-20T19:45:02.244Z,9.27
2022-11-20T19:47:14.633Z,7.40
2022-11-20T19:49:17.862Z,9.30
2022-11-20T19:51:33.902Z,8.77
2022-11-20T19:53:36.520Z,8.70
2022-11-20T19:55:43.141Z,8.50
2022-11-20T19:57:45.707Z,10.90
2022-11-20T19:59:49.020Z,9.30
2022-11-20T20:01:52.324Z,8.60
2022-11-20T20:03:56.643Z,9.67
2022-11-20T20:06:04.972Z,9.60
2022-11-20T20:08:07.580Z,11.03
2022-11-20T20:10:10.485Z,9.10
2022-11-20T20:12:13.046Z,11.50
2022-11-20T20:14:18.430Z,11.93
2022-11-20T20:16:23.810Z,13.00
2022-11-20T20:18:26.456Z,13.63
2022-11-20T20:21:49.675Z,13.55
2022-11-20T20:23:54.823Z,12.87
2022-11-20T20:26:12.808Z,14.32
2022-11-20T20:28:15.957Z,13.40
2022-11-20T20:31:26.066Z,14.65
2022-11-20T20:32:28.615Z,15.57
2022-11-20T20:33:31.136Z,14.13
2022-11-20T20:34:33.625Z,14.40
2022-11-20T20:35:41.649Z,13.25
2022-11-20T20:36:44.846Z,15.00
2022-11-20T20:37:47.440Z,15.07
2022-11-20T20:38:54.749Z,12.73
2022-11-20T20:39:58.047Z,13.43
2022-11-20T20:41:00.712Z,13.25
2022-11-20T20:42:03.316Z,13.90
2022-11-20T20:43:05.902Z,14.48
2022-11-20T20:44:27.057Z,14.70
2022-11-20T20:45:29.711Z,12.73
2022-11-20T20:46:32.429Z,13.77
2022-11-20T20:47:38.035Z,14.23
2022-11-20T20:48:40.639Z,14.20
2022-11-20T20:49:43.291Z,12.63
2022-11-20T20:50:59.881Z,12.32
2022-11-20T20:52:02.436Z,12.95
2022-11-20T20:53:05.073Z,12.88
2022-11-20T20:54:07.667Z,12.10
2022-11-20T20:55:10.687Z,13.50
2022-11-20T20:56:13.304Z,12.05
2022-11-20T20:57:15.908Z,14.00
2022-11-20T20:58:18.474Z,12.45
2022-11-20T20:59:21.494Z,13.68
2022-11-20T21:00:24.306Z,12.57
2022-11-20T21:01:30.172Z,11.75
2022-11-20T21:02:33.041Z,12.57
2022-11-20T21:03:37.210Z,11.98
2022-11-20T21:04:39.805Z,11.85
2022-11-20T21:05:42.341Z,13.45
2022-11-20T21:06:44.881Z,12.13
2022-11-20T21:08:06.043Z,11.68
2022-11-20T21:09:08.588Z,11.68
2022-11-20T21:10:11.117Z,11.65
2022-11-20T21:11:16.741Z,11.40
2022-11-20T21:12:19.317Z,10.90
2022-11-20T21:13:23.741Z,11.50
2022-11-20T21:14:26.359Z,11.80
2022-11-20T21:15:29.000Z,11.40
2022-11-20T21:16:41.067Z,14.43
2022-11-20T21:17:44.384Z,13.55
2022-11-20T21:18:47.331Z,12.93
2022-11-20T21:19:49.865Z,12.85
2022-11-20T21:21:11.492Z,13.77
2022-11-20T21:22:14.033Z,13.00
2022-11-20T21:23:16.668Z,15.15
2022-11-20T21:24:19.266Z,14.23
2022-11-20T21:25:21.925Z,14.40
2022-11-20T21:26:24.622Z,14.55
2022-11-20T21:27:27.149Z,15.63
2022-11-20T21:28:32.066Z,16.13
2022-11-20T21:29:34.736Z,14.20
2022-11-20T21:30:37.269Z,14.23
2022-11-20T21:31:39.858Z,13.57
2022-11-20T21:32:42.383Z,14.23
2022-11-20T21:33:47.555Z,14.43
2022-11-20T21:34:50.137Z,12.57
2022-11-20T21:35:52.652Z,15.13
2022-11-20T21:36:55.341Z,14.93
2022-11-20T21:37:57.862Z,15.77
2022-11-20T21:39:00.935Z,13.23
2022-11-20T21:40:04.299Z,13.00
2022-11-20T21:41:09.259Z,13.02
2022-11-20T21:42:11.847Z,14.70
2022-11-20T21:43:14.794Z,12.32
2022-11-20T21:44:41.507Z,12.30
2022-11-20T21:45:39.973Z,13.10
2022-11-20T21:46:45.010Z,13.50
2022-11-20T21:47:50.726Z,12.50
2022-11-20T21:48:53.399Z,13.07
2022-11-20T21:49:55.920Z,12.18
2022-11-20T21:51:25.628Z,13.43
2022-11-20T21:52:28.140Z,11.88
2022-11-20T21:53:30.940Z,11.60
2022-11-20T21:54:35.787Z,12.82
2022-11-20T21:55:38.299Z,11.27
2022-11-20T21:56:40.898Z,13.10
2022-11-20T21:57:43.456Z,13.23
2022-11-20T21:58:46.857Z,14.10
2022-11-20T21:59:49.438Z,12.98
2022-11-20T22:00:52.254Z,13.10
2022-11-20T22:01:54.825Z,13.18
2022-11-20T22:02:57.410Z,12.45
2022-11-20T22:04:02.597Z,13.77
2022-11-20T22:05:05.657Z,13.90
2022-11-20T22:06:10.084Z,14.00
2022-11-20T22:07:12.707Z,12.38
2022-11-20T22:08:15.276Z,13.27
2022-11-20T22:09:17.845Z,14.45
2022-11-20T22:10:20.365Z,13.43
2022-11-20T22:11:23.032Z,13.07
2022-11-20T22:12:25.574Z,14.00
2022-11-20T22:13:47.374Z,14.77
2022-11-20T22:14:49.892Z,13.15
2022-11-20T22:16:00.720Z,14.05
2022-11-20T22:17:03.804Z,13.57
2022-11-20T22:18:12.752Z,13.30
2022-11-20T22:19:20.101Z,13.68
2022-11-20T22:20:22.620Z,13.45
2022-11-20T22:21:28.129Z,14.50
2022-11-20T22:22:30.682Z,13.70
2022-11-20T22:23:34.650Z,13.98
2022-11-20T22:24:37.228Z,14.25
2022-11-20T22:25:39.730Z,13.70
2022-11-20T22:26:42.331Z,13.70
2022-11-20T22:27:46.709Z,14.70
2022-11-20T22:28:51.819Z,13.98
2022-11-20T22:29:54.348Z,15.15
2022-11-20T22:31:01.155Z,12.88
2022-11-20T22:32:03.750Z,14.80
2022-11-20T22:33:11.963Z,14.75
2022-11-20T22:34:16.023Z,14.13
2022-11-20T22:35:18.568Z,14.52
2022-11-20T22:36:28.411Z,14.15
2022-11-20T22:37:30.971Z,13.90
2022-11-20T22:38:39.123Z,13.13
2022-11-20T22:39:42.117Z,12.15
2022-11-20T22:40:46.727Z,12.98
2022-11-20T22:41:49.303Z,12.32
2022-11-20T22:42:51.845Z,11.63
2022-11-20T22:43:57.384Z,13.32
2022-11-20T22:44:59.965Z,11.80
2022-11-20T22:46:19.556Z,12.52
2022-11-20T22:47:22.074Z,11.85
2022-11-20T22:48:24.810Z,11.23
2022-11-20T22:49:27.387Z,12.82
2022-11-20T22:50:29.936Z,13.38
2022-11-20T22:51:35.631Z,10.52
2022-11-20T22:52:38.179Z,11.27
2022-11-20T22:53:41.840Z,10.88
2022-11-20T22:54:44.448Z,11.75
2022-11-20T22:55:49.792Z,12.15
2022-11-20T22:56:52.386Z,15.25
2022-11-20T22:57:54.907Z,12.75
2022-11-20T22:58:57.451Z,12.80
2022-11-20T23:00:00.036Z,11.05
2022-11-20T23:01:19.085Z,12.77
2022-11-20T23:02:21.652Z,11.95
2022-11-20T23:03:24.261Z,13.85
2022-11-20T23:04:26.806Z,13.23
2022-11-20T23:05:32.304Z,12.90
2022-11-20T23:06:35.160Z,12.13
2022-11-20T23:07:40.958Z,11.35
2022-11-20T23:08:44.433Z,13.52
2022-11-20T23:09:46.961Z,12.48
2022-11-20T23:10:49.502Z,12.65
2022-11-20T23:11:52.967Z,11.95
2022-11-20T23:12:55.531Z,12.50
2022-11-20T23:14:01.672Z,12.57
2022-11-20T23:15:04.569Z,12.70
2022-11-20T23:16:13.541Z,11.70
2022-11-20T23:17:16.095Z,11.13
2022-11-20T23:18:18.630Z,12.65
2022-11-20T23:19:22.642Z,11.50
2022-11-20T23:20:25.197Z,12.32
2022-11-20T23:21:28.110Z,10.60
2022-11-20T23:22:32.642Z,10.25
2022-11-20T23:23:35.219Z,11.60
2022-11-20T23:24:37.711Z,10.90
2022-11-20T23:25:40.337Z,10.32
2022-11-20T23:26:43.642Z,11.07
2022-11-20T23:27:46.281Z,11.85
2022-11-20T23:28:48.856Z,12.02
2022-11-20T23:29:51.448Z,13.45
2022-11-20T23:30:53.944Z,15.70
2022-11-20T23:31:56.484Z,14.00
2022-11-20T23:32:59.009Z,12.75
2022-11-20T23:34:01.569Z,13.77
2022-11-20T23:35:04.387Z,11.93
2022-11-20T23:36:07.641Z,12.43
2022-11-20T23:37:10.197Z,11.43
2022-11-20T23:38:12.717Z,13.82
2022-11-20T23:39:16.772Z,12.70
2022-11-20T23:40:19.412Z,12.18
2022-11-20T23:41:21.939Z,12.43
2022-11-20T23:42:24.494Z,14.77
2022-11-20T23:43:27.495Z,13.13
2022-11-20T23:44:30.132Z,13.55
2022-11-20T23:45:39.610Z,12.57
2022-11-20T23:46:42.166Z,14.60
2022-11-20T23:47:44.731Z,15.32
2022-11-20T23:48:47.271Z,12.85
2022-11-20T23:49:49.851Z,14.70
2022-11-20T23:50:52.714Z,15.32
2022-11-20T23:51:55.250Z,14.82
2022-11-20T23:52:57.776Z,15.85
2022-11-20T23:54:04.563Z,15.45
2022-11-20T23:55:07.907Z,15.32
2022-11-20T23:56:12.242Z,15.70
2022-11-20T23:57:14.743Z,13.43
2022-11-20T23:58:18.126Z,14.75
2022-11-20T23:59:20.674Z,13.05
